Quick Links (Output Below):   Max & Min Temps   /   Climate Reports   /   Zone Forecasts
River Forecasts   /   Forestry Forecasts   /   Aviation Forecasts   /   Radars   /   Features

Terminal Aerodrome Forecast (Jonesboro)

Pick a Site:
Arkadelphia | El Dorado | Fayetteville | Fort Smith | Harrison | Highfill | Hot Springs | Jonesboro
Little Rock | Monticello | Mountain Home | Pine Bluff | Texarkana

KJBR 091120Z 0912/1012 35008KT P6SM VCSH BKN050 BKN100 OVC150
      TEMPO 0915/0919 6SM -SHRA OVC035
     FM092000 36010KT P6SM OVC050
     FM100000 36004KT P6SM BKN120
     FM100700 36004KT P6SM SKC=

 Latest METARs (Observations) 
How to Decode METARs
12Z KJBR 091153Z AUTO 00000KT 9SM BKN110 18/16 A3007 RMK AO2 SLP182
         T01780161 10194 20156 53012
11Z KJBR 091053Z AUTO 00000KT 6SM BR BKN100 17/16 A3006 RMK AO2 SLP175
10Z KJBR 090953Z AUTO 28004KT 7SM CLR 18/16 A3005 RMK AO2 SLP173
09Z KJBR 090853Z AUTO 28003KT 6SM BR CLR 16/16 A3004 RMK AO2 SLP169
         T01610156 50003
08Z KJBR 090753Z AUTO 00000KT 7SM CLR 17/16 A3004 RMK AO2 SLP171
07Z KJBR 090653Z AUTO 00000KT 8SM CLR 17/16 A3003 RMK AO2 SLP167
06Z KJBR 090553Z AUTO 00000KT 7SM CLR 17/16 A3003 RMK AO2 SLP165
         T01720156 10211 20167 403000150 58004
05Z KJBR 090453Z AUTO 00000KT 6SM BR CLR 17/16 A3004 RMK AO2 SLP170
04Z KJBR 090353Z AUTO 00000KT 7SM CLR 18/16 A3004 RMK AO2 SLP170
03Z KJBR 090253Z AUTO 00000KT 6SM BR CLR 18/16 A3004 RMK AO2 SLP170
         T01830161 52010
***** Today's Observations (Above) *****

Back to Main Page

USA.gov is the U.S. government's official web portal to all federal, state and local government web resources and services.